sensor_id;sensor_type;location;lat;lon;timestamp;temperature;humidity
22503;DHT22;11418;48.118;9.992;2023-04-24T00:02:52;9.70;99.90
22503;DHT22;11418;48.118;9.992;2023-04-24T00:06:57;9.80;99.90
22503;DHT22;11418;48.118;9.992;2023-04-24T00:11:00;9.90;99.90
22503;DHT22;11418;48.118;9.992;2023-04-24T00:15:00;9.90;99.90
22503;DHT22;11418;48.118;9.992;2023-04-24T00:19:01;9.80;99.90
22503;DHT22;11418;48.118;9.992;2023-04-24T00:23:02;9.90;99.90
22503;DHT22;11418;48.118;9.992;2023-04-24T00:27:02;9.90;99.90
22503;DHT22;11418;48.118;9.992;2023-04-24T00:31:03;9.80;99.90
22503;DHT22;11418;48.118;9.992;2023-04-24T00:35:04;9.80;99.90
22503;DHT22;11418;48.118;9.992;2023-04-24T00:39:06;9.70;99.90
22503;DHT22;11418;48.118;9.992;2023-04-24T00:43:08;9.70;99.90
22503;DHT22;11418;48.118;9.992;2023-04-24T00:47:09;9.80;99.90
22503;DHT22;11418;48.118;9.992;2023-04-24T00:51:10;9.80;99.90
22503;DHT22;11418;48.118;9.992;2023-04-24T00:55:11;9.90;99.90
22503;DHT22;11418;48.118;9.992;2023-04-24T00:59:12;9.80;99.90
22503;DHT22;11418;48.118;9.992;2023-04-24T01:03:12;9.90;99.90
22503;DHT22;11418;48.118;9.992;2023-04-24T01:07:14;9.80;99.90
22503;DHT22;11418;48.118;9.992;2023-04-24T01:11:14;9.80;99.90
22503;DHT22;11418;48.118;9.992;2023-04-24T01:15:15;9.70;99.90
22503;DHT22;11418;48.118;9.992;2023-04-24T01:19:15;9.70;99.90
22503;DHT22;11418;48.118;9.992;2023-04-24T01:23:16;9.70;99.90
22503;DHT22;11418;48.118;9.992;2023-04-24T01:27:17;9.70;99.90
22503;DHT22;11418;48.118;9.992;2023-04-24T01:31:17;9.60;99.90
22503;DHT22;11418;48.118;9.992;2023-04-24T01:35:18;9.60;99.90
22503;DHT22;11418;48.118;9.992;2023-04-24T01:39:18;9.60;99.90
22503;DHT22;11418;48.118;9.992;2023-04-24T01:43:20;9.60;99.90
22503;DHT22;11418;48.118;9.992;2023-04-24T01:47:21;9.60;99.90
22503;DHT22;11418;48.118;9.992;2023-04-24T01:51:22;9.50;99.90
22503;DHT22;11418;48.118;9.992;2023-04-24T01:55:22;9.50;99.90
22503;DHT22;11418;48.118;9.992;2023-04-24T01:59:23;9.30;99.90
22503;DHT22;11418;48.118;9.992;2023-04-24T02:03:26;9.40;99.90
22503;DHT22;11418;48.118;9.992;2023-04-24T02:07:26;9.40;99.90
22503;DHT22;11418;48.118;9.992;2023-04-24T02:11:26;9.40;99.90
22503;DHT22;11418;48.118;9.992;2023-04-24T02:15:27;9.50;99.90
22503;DHT22;11418;48.118;9.992;2023-04-24T02:19:28;9.50;99.90
22503;DHT22;11418;48.118;9.992;2023-04-24T02:23:28;9.50;99.90
22503;DHT22;11418;48.118;9.992;2023-04-24T02:27:29;9.60;99.90
22503;DHT22;11418;48.118;9.992;2023-04-24T02:31:29;9.60;99.90
22503;DHT22;11418;48.118;9.992;2023-04-24T02:35:30;9.70;99.90
22503;DHT22;11418;48.118;9.992;2023-04-24T02:39:30;9.60;99.90
22503;DHT22;11418;48.118;9.992;2023-04-24T02:43:30;9.60;99.90
22503;DHT22;11418;48.118;9.992;2023-04-24T02:47:31;9.50;99.90
22503;DHT22;11418;48.118;9.992;2023-04-24T02:51:31;9.40;99.90
22503;DHT22;11418;48.118;9.992;2023-04-24T02:55:32;9.50;99.90
22503;DHT22;11418;48.118;9.992;2023-04-24T02:59:32;9.50;99.90
22503;DHT22;11418;48.118;9.992;2023-04-24T03:03:33;9.50;99.90
22503;DHT22;11418;48.118;9.992;2023-04-24T03:07:34;9.50;99.90
22503;DHT22;11418;48.118;9.992;2023-04-24T03:11:34;9.50;99.90
22503;DHT22;11418;48.118;9.992;2023-04-24T03:15:35;9.50;99.90
22503;DHT22;11418;48.118;9.992;2023-04-24T03:19:35;9.50;99.90
22503;DHT22;11418;48.118;9.992;2023-04-24T03:23:35;9.40;99.90
22503;DHT22;11418;48.118;9.992;2023-04-24T03:27:36;9.30;99.90
22503;DHT22;11418;48.118;9.992;2023-04-24T03:31:37;9.30;99.90
22503;DHT22;11418;48.118;9.992;2023-04-24T03:35:38;9.30;99.90
22503;DHT22;11418;48.118;9.992;2023-04-24T03:39:38;9.50;99.90
22503;DHT22;11418;48.118;9.992;2023-04-24T03:43:38;9.40;99.90
22503;DHT22;11418;48.118;9.992;2023-04-24T03:47:39;9.40;99.90
22503;DHT22;11418;48.118;9.992;2023-04-24T03:51:39;9.40;99.90
22503;DHT22;11418;48.118;9.992;2023-04-24T03:55:40;9.50;99.90
22503;DHT22;11418;48.118;9.992;2023-04-24T03:59:40;9.50;99.90
22503;DHT22;11418;48.118;9.992;2023-04-24T04:03:41;9.50;99.90
22503;DHT22;11418;48.118;9.992;2023-04-24T04:07:41;9.30;99.90
22503;DHT22;11418;48.118;9.992;2023-04-24T04:11:42;9.20;99.90
22503;DHT22;11418;48.118;9.992;2023-04-24T04:15:42;9.20;99.90
22503;DHT22;11418;48.118;9.992;2023-04-24T04:19:43;9.20;99.90
22503;DHT22;11418;48.118;9.992;2023-04-24T04:23:43;9.20;99.90
22503;DHT22;11418;48.118;9.992;2023-04-24T04:27:44;9.10;99.90
22503;DHT22;11418;48.118;9.992;2023-04-24T04:31:44;9.10;99.90
22503;DHT22;11418;48.118;9.992;2023-04-24T04:35:45;9.20;99.90
22503;DHT22;11418;48.118;9.992;2023-04-24T04:39:48;9.20;99.90
22503;DHT22;11418;48.118;9.992;2023-04-24T04:43:49;9.10;99.90
22503;DHT22;11418;48.118;9.992;2023-04-24T04:47:50;9.00;99.90
22503;DHT22;11418;48.118;9.992;2023-04-24T04:51:50;9.00;99.90
22503;DHT22;11418;48.118;9.992;2023-04-24T04:55:51;9.00;99.90
22503;DHT22;11418;48.118;9.992;2023-04-24T04:59:51;9.40;99.90
22503;DHT22;11418;48.118;9.992;2023-04-24T05:03:52;9.40;99.90
22503;DHT22;11418;48.118;9.992;2023-04-24T05:07:52;9.30;99.90
22503;DHT22;11418;48.118;9.992;2023-04-24T05:11:53;9.40;99.90
22503;DHT22;11418;48.118;9.992;2023-04-24T05:15:53;9.40;99.90
22503;DHT22;11418;48.118;9.992;2023-04-24T05:19:54;9.50;99.90
22503;DHT22;11418;48.118;9.992;2023-04-24T05:23:54;9.50;99.90
22503;DHT22;11418;48.118;9.992;2023-04-24T05:27:55;9.60;99.90
22503;DHT22;11418;48.118;9.992;2023-04-24T05:31:55;9.60;99.90
22503;DHT22;11418;48.118;9.992;2023-04-24T05:35:56;9.60;99.90
22503;DHT22;11418;48.118;9.992;2023-04-24T05:39:56;9.50;99.90
22503;DHT22;11418;48.118;9.992;2023-04-24T05:43:57;9.60;99.90
22503;DHT22;11418;48.118;9.992;2023-04-24T05:47:57;9.70;99.90
22503;DHT22;11418;48.118;9.992;2023-04-24T05:51:58;9.80;99.90
22503;DHT22;11418;48.118;9.992;2023-04-24T05:55:58;9.80;99.90
22503;DHT22;11418;48.118;9.992;2023-04-24T05:59:58;9.90;99.90
22503;DHT22;11418;48.118;9.992;2023-04-24T06:03:59;10.00;99.90
22503;DHT22;11418;48.118;9.992;2023-04-24T06:07:59;10.00;99.90
22503;DHT22;11418;48.118;9.992;2023-04-24T06:12:00;10.10;99.90
22503;DHT22;11418;48.118;9.992;2023-04-24T06:16:00;10.40;99.90
22503;DHT22;11418;48.118;9.992;2023-04-24T06:20:01;10.50;99.90
22503;DHT22;11418;48.118;9.992;2023-04-24T06:24:05;10.50;99.90
22503;DHT22;11418;48.118;9.992;2023-04-24T06:28:05;10.40;99.90
22503;DHT22;11418;48.118;9.992;2023-04-24T06:32:06;10.30;99.90
22503;DHT22;11418;48.118;9.992;2023-04-24T06:36:06;9.80;99.90
22503;DHT22;11418;48.118;9.992;2023-04-24T06:40:07;7.90;99.90
22503;DHT22;11418;48.118;9.992;2023-04-24T06:44:07;7.20;99.90
22503;DHT22;11418;48.118;9.992;2023-04-24T06:48:08;7.10;99.90
22503;DHT22;11418;48.118;9.992;2023-04-24T06:52:09;7.10;99.90
22503;DHT22;11418;48.118;9.992;2023-04-24T06:56:09;7.30;99.90
22503;DHT22;11418;48.118;9.992;2023-04-24T07:00:10;7.60;99.90
22503;DHT22;11418;48.118;9.992;2023-04-24T07:04:11;7.80;99.90
22503;DHT22;11418;48.118;9.992;2023-04-24T07:08:13;7.80;99.90
22503;DHT22;11418;48.118;9.992;2023-04-24T07:12:13;7.80;99.90
22503;DHT22;11418;48.118;9.992;2023-04-24T07:16:14;7.90;99.90
22503;DHT22;11418;48.118;9.992;2023-04-24T07:20:14;7.80;99.90
22503;DHT22;11418;48.118;9.992;2023-04-24T07:24:15;7.90;99.90
22503;DHT22;11418;48.118;9.992;2023-04-24T07:28:17;8.20;99.90
22503;DHT22;11418;48.118;9.992;2023-04-24T07:32:18;8.60;99.90
22503;DHT22;11418;48.118;9.992;2023-04-24T07:36:18;9.00;99.90
22503;DHT22;11418;48.118;9.992;2023-04-24T07:40:20;9.60;99.90
22503;DHT22;11418;48.118;9.992;2023-04-24T07:44:20;10.10;99.90
22503;DHT22;11418;48.118;9.992;2023-04-24T07:48:21;10.50;99.90
22503;DHT22;11418;48.118;9.992;2023-04-24T07:52:22;11.30;99.90
22503;DHT22;11418;48.118;9.992;2023-04-24T07:56:23;11.20;99.90
22503;DHT22;11418;48.118;9.992;2023-04-24T08:00:23;12.20;99.90
22503;DHT22;11418;48.118;9.992;2023-04-24T08:04:24;12.60;99.90
22503;DHT22;11418;48.118;9.992;2023-04-24T08:08:24;12.90;99.90
22503;DHT22;11418;48.118;9.992;2023-04-24T08:12:25;13.20;99.90
22503;DHT22;11418;48.118;9.992;2023-04-24T08:16:25;13.30;99.90
22503;DHT22;11418;48.118;9.992;2023-04-24T08:20:26;13.30;99.90
22503;DHT22;11418;48.118;9.992;2023-04-24T08:24:26;13.50;99.90
22503;DHT22;11418;48.118;9.992;2023-04-24T08:28:27;13.30;99.90
22503;DHT22;11418;48.118;9.992;2023-04-24T08:32:27;13.20;99.90
22503;DHT22;11418;48.118;9.992;2023-04-24T08:36:31;12.80;99.90
22503;DHT22;11418;48.118;9.992;2023-04-24T08:40:33;12.20;99.90
22503;DHT22;11418;48.118;9.992;2023-04-24T08:44:34;10.40;99.90
22503;DHT22;11418;48.118;9.992;2023-04-24T08:48:35;9.00;99.90
22503;DHT22;11418;48.118;9.992;2023-04-24T08:52:36;8.50;99.90
22503;DHT22;11418;48.118;9.992;2023-04-24T08:56:37;8.30;99.90
22503;DHT22;11418;48.118;9.992;2023-04-24T09:00:39;8.00;99.90
22503;DHT22;11418;48.118;9.992;2023-04-24T09:04:40;8.00;99.90
22503;DHT22;11418;48.118;9.992;2023-04-24T09:08:40;8.00;99.90
22503;DHT22;11418;48.118;9.992;2023-04-24T09:12:41;8.20;99.90
22503;DHT22;11418;48.118;9.992;2023-04-24T09:16:42;8.70;99.90
22503;DHT22;11418;48.118;9.992;2023-04-24T09:21:02;9.40;99.90
22503;DHT22;11418;48.118;9.992;2023-04-24T09:25:04;10.90;99.90
22503;DHT22;11418;48.118;9.992;2023-04-24T09:29:05;12.40;99.90
22503;DHT22;11418;48.118;9.992;2023-04-24T09:33:09;13.90;99.90
22503;DHT22;11418;48.118;9.992;2023-04-24T09:37:10;14.10;99.90
22503;DHT22;11418;48.118;9.992;2023-04-24T09:41:13;13.90;99.90
22503;DHT22;11418;48.118;9.992;2023-04-24T09:45:13;13.10;99.90
22503;DHT22;11418;48.118;9.992;2023-04-24T09:49:15;11.90;99.90
22503;DHT22;11418;48.118;9.992;2023-04-24T09:57:19;12.40;99.90
22503;DHT22;11418;48.118;9.992;2023-04-24T10:01:29;13.30;99.90
22503;DHT22;11418;48.118;9.992;2023-04-24T10:05:30;13.60;99.90
22503;DHT22;11418;48.118;9.992;2023-04-24T10:09:31;13.70;99.90
22503;DHT22;11418;48.118;9.992;2023-04-24T10:13:32;13.30;99.90
22503;DHT22;11418;48.118;9.992;2023-04-24T10:17:32;12.80;99.90
22503;DHT22;11418;48.118;9.992;2023-04-24T10:21:34;12.20;99.90
22503;DHT22;11418;48.118;9.992;2023-04-24T10:25:35;11.80;99.90
22503;DHT22;11418;48.118;9.992;2023-04-24T10:29:37;13.20;99.90
22503;DHT22;11418;48.118;9.992;2023-04-24T10:33:42;15.20;99.90
22503;DHT22;11418;48.118;9.992;2023-04-24T10:37:48;16.80;99.90
22503;DHT22;11418;48.118;9.992;2023-04-24T10:41:49;17.00;99.90
22503;DHT22;11418;48.118;9.992;2023-04-24T10:46:02;16.90;99.90
22503;DHT22;11418;48.118;9.992;2023-04-24T10:50:05;16.70;99.90
22503;DHT22;11418;48.118;9.992;2023-04-24T10:58:35;16.30;99.90
22503;DHT22;11418;48.118;9.992;2023-04-24T11:02:37;17.00;99.90
22503;DHT22;11418;48.118;9.992;2023-04-24T11:06:38;15.60;99.90
22503;DHT22;11418;48.118;9.992;2023-04-24T11:10:43;14.20;99.90
22503;DHT22;11418;48.118;9.992;2023-04-24T11:19:39;13.60;99.90
22503;DHT22;11418;48.118;9.992;2023-04-24T11:23:20;13.70;99.90
22503;DHT22;11418;48.118;9.992;2023-04-24T11:27:21;14.10;99.90
22503;DHT22;11418;48.118;9.992;2023-04-24T11:31:38;14.40;99.90
22503;DHT22;11418;48.118;9.992;2023-04-24T11:35:39;15.20;99.90
22503;DHT22;11418;48.118;9.992;2023-04-24T11:39:40;15.70;99.90
22503;DHT22;11418;48.118;9.992;2023-04-24T11:43:41;16.30;99.90
22503;DHT22;11418;48.118;9.992;2023-04-24T11:47:42;17.20;99.90
22503;DHT22;11418;48.118;9.992;2023-04-24T11:51:42;18.10;99.90
22503;DHT22;11418;48.118;9.992;2023-04-24T11:55:43;17.00;99.90
22503;DHT22;11418;48.118;9.992;2023-04-24T11:59:43;16.90;99.90
22503;DHT22;11418;48.118;9.992;2023-04-24T12:03:47;17.20;98.40
22503;DHT22;11418;48.118;9.992;2023-04-24T12:07:48;18.60;99.90
22503;DHT22;11418;48.118;9.992;2023-04-24T12:11:55;19.10;95.00
22503;DHT22;11418;48.118;9.992;2023-04-24T12:15:57;19.20;92.20
22503;DHT22;11418;48.118;9.992;2023-04-24T12:20:02;19.50;93.40
22503;DHT22;11418;48.118;9.992;2023-04-24T12:24:05;19.90;88.70
22503;DHT22;11418;48.118;9.992;2023-04-24T12:32:15;17.20;93.50
22503;DHT22;11418;48.118;9.992;2023-04-24T12:36:15;15.80;95.40
22503;DHT22;11418;48.118;9.992;2023-04-24T12:40:17;14.30;98.90
22503;DHT22;11418;48.118;9.992;2023-04-24T12:44:17;13.30;99.90
22503;DHT22;11418;48.118;9.992;2023-04-24T12:48:18;12.50;99.90
22503;DHT22;11418;48.118;9.992;2023-04-24T12:52:23;12.50;99.90
22503;DHT22;11418;48.118;9.992;2023-04-24T12:56:24;13.70;99.90
22503;DHT22;11418;48.118;9.992;2023-04-24T13:00:24;14.70;99.90
22503;DHT22;11418;48.118;9.992;2023-04-24T13:04:25;15.70;99.90
22503;DHT22;11418;48.118;9.992;2023-04-24T13:08:25;15.50;99.90
22503;DHT22;11418;48.118;9.992;2023-04-24T13:12:26;14.70;99.90
22503;DHT22;11418;48.118;9.992;2023-04-24T13:16:26;14.20;99.90
22503;DHT22;11418;48.118;9.992;2023-04-24T13:20:27;13.40;99.90
22503;DHT22;11418;48.118;9.992;2023-04-24T13:24:27;13.10;99.90
22503;DHT22;11418;48.118;9.992;2023-04-24T13:28:28;14.50;99.90
22503;DHT22;11418;48.118;9.992;2023-04-24T13:32:29;14.60;99.90
22503;DHT22;11418;48.118;9.992;2023-04-24T13:36:30;14.80;99.90
22503;DHT22;11418;48.118;9.992;2023-04-24T13:40:31;13.80;99.90
22503;DHT22;11418;48.118;9.992;2023-04-24T13:44:32;12.80;99.90
22503;DHT22;11418;48.118;9.992;2023-04-24T13:48:32;13.40;99.90
22503;DHT22;11418;48.118;9.992;2023-04-24T13:52:33;14.20;99.90
22503;DHT22;11418;48.118;9.992;2023-04-24T13:56:33;16.00;99.90
22503;DHT22;11418;48.118;9.992;2023-04-24T14:00:34;18.00;95.20
22503;DHT22;11418;48.118;9.992;2023-04-24T14:04:34;15.80;99.50
22503;DHT22;11418;48.118;9.992;2023-04-24T14:08:35;14.70;97.40
22503;DHT22;11418;48.118;9.992;2023-04-24T14:12:35;15.20;97.50
22503;DHT22;11418;48.118;9.992;2023-04-24T14:16:36;14.00;99.90
22503;DHT22;11418;48.118;9.992;2023-04-24T14:20:36;13.60;99.90
22503;DHT22;11418;48.118;9.992;2023-04-24T14:24:36;13.50;99.90
22503;DHT22;11418;48.118;9.992;2023-04-24T14:28:37;13.90;99.90
22503;DHT22;11418;48.118;9.992;2023-04-24T14:32:38;14.00;99.90
22503;DHT22;11418;48.118;9.992;2023-04-24T14:36:38;14.30;99.90
22503;DHT22;11418;48.118;9.992;2023-04-24T14:40:39;16.70;97.60
22503;DHT22;11418;48.118;9.992;2023-04-24T14:44:40;18.10;95.60
22503;DHT22;11418;48.118;9.992;2023-04-24T14:48:41;17.20;94.80
22503;DHT22;11418;48.118;9.992;2023-04-24T14:52:41;15.00;96.80
22503;DHT22;11418;48.118;9.992;2023-04-24T14:56:42;14.00;99.90
22503;DHT22;11418;48.118;9.992;2023-04-24T15:00:43;14.80;99.60
22503;DHT22;11418;48.118;9.992;2023-04-24T15:04:44;15.10;99.70
22503;DHT22;11418;48.118;9.992;2023-04-24T15:08:45;15.60;98.70
22503;DHT22;11418;48.118;9.992;2023-04-24T15:12:45;14.30;99.90
22503;DHT22;11418;48.118;9.992;2023-04-24T15:16:45;13.90;99.90
22503;DHT22;11418;48.118;9.992;2023-04-24T15:20:46;13.40;99.90
22503;DHT22;11418;48.118;9.992;2023-04-24T15:24:46;12.90;99.90
22503;DHT22;11418;48.118;9.992;2023-04-24T15:28:47;12.90;99.90
22503;DHT22;11418;48.118;9.992;2023-04-24T15:32:47;13.20;99.90
22503;DHT22;11418;48.118;9.992;2023-04-24T15:36:48;13.50;99.90
22503;DHT22;11418;48.118;9.992;2023-04-24T15:40:48;14.50;99.90
22503;DHT22;11418;48.118;9.992;2023-04-24T15:44:49;14.10;99.50
22503;DHT22;11418;48.118;9.992;2023-04-24T15:48:49;13.20;99.90
22503;DHT22;11418;48.118;9.992;2023-04-24T15:52:50;13.30;99.90
22503;DHT22;11418;48.118;9.992;2023-04-24T15:56:50;12.70;99.90
22503;DHT22;11418;48.118;9.992;2023-04-24T16:00:51;12.60;99.90
22503;DHT22;11418;48.118;9.992;2023-04-24T16:04:53;12.60;99.90
22503;DHT22;11418;48.118;9.992;2023-04-24T16:08:53;12.90;99.90
22503;DHT22;11418;48.118;9.992;2023-04-24T16:12:54;13.30;99.90
22503;DHT22;11418;48.118;9.992;2023-04-24T16:16:55;13.20;99.90
22503;DHT22;11418;48.118;9.992;2023-04-24T16:20:55;13.10;99.90
22503;DHT22;11418;48.118;9.992;2023-04-24T16:24:56;12.70;99.90
22503;DHT22;11418;48.118;9.992;2023-04-24T16:28:57;12.60;99.90
22503;DHT22;11418;48.118;9.992;2023-04-24T16:32:58;12.30;99.90
22503;DHT22;11418;48.118;9.992;2023-04-24T16:36:58;12.10;99.90
22503;DHT22;11418;48.118;9.992;2023-04-24T16:40:59;12.00;99.90
22503;DHT22;11418;48.118;9.992;2023-04-24T16:44:59;11.80;99.90
22503;DHT22;11418;48.118;9.992;2023-04-24T16:49:00;11.80;99.90
22503;DHT22;11418;48.118;9.992;2023-04-24T16:53:00;11.80;99.90
22503;DHT22;11418;48.118;9.992;2023-04-24T16:57:01;11.60;99.90
22503;DHT22;11418;48.118;9.992;2023-04-24T17:01:02;11.40;99.90
22503;DHT22;11418;48.118;9.992;2023-04-24T17:05:03;11.40;99.90
22503;DHT22;11418;48.118;9.992;2023-04-24T17:09:03;11.30;99.90
22503;DHT22;11418;48.118;9.992;2023-04-24T17:13:03;11.10;99.90
22503;DHT22;11418;48.118;9.992;2023-04-24T17:17:04;10.90;99.90
22503;DHT22;11418;48.118;9.992;2023-04-24T17:21:04;10.70;99.90
22503;DHT22;11418;48.118;9.992;2023-04-24T17:25:05;10.50;99.90
22503;DHT22;11418;48.118;9.992;2023-04-24T17:29:06;10.30;99.90
22503;DHT22;11418;48.118;9.992;2023-04-24T17:33:06;10.10;99.90
22503;DHT22;11418;48.118;9.992;2023-04-24T17:37:07;9.80;99.90
22503;DHT22;11418;48.118;9.992;2023-04-24T17:41:07;9.50;99.90
22503;DHT22;11418;48.118;9.992;2023-04-24T17:45:08;9.60;99.90
22503;DHT22;11418;48.118;9.992;2023-04-24T17:49:08;9.30;99.90
22503;DHT22;11418;48.118;9.992;2023-04-24T17:53:09;9.20;99.90
22503;DHT22;11418;48.118;9.992;2023-04-24T17:57:10;8.90;99.90
22503;DHT22;11418;48.118;9.992;2023-04-24T18:01:11;8.70;99.90
22503;DHT22;11418;48.118;9.992;2023-04-24T18:05:11;8.60;99.90
22503;DHT22;11418;48.118;9.992;2023-04-24T18:09:12;8.50;99.90
22503;DHT22;11418;48.118;9.992;2023-04-24T18:13:14;8.60;99.90
22503;DHT22;11418;48.118;9.992;2023-04-24T18:17:15;8.60;99.90
22503;DHT22;11418;48.118;9.992;2023-04-24T18:21:15;8.50;99.90
22503;DHT22;11418;48.118;9.992;2023-04-24T18:25:16;8.40;99.90
22503;DHT22;11418;48.118;9.992;2023-04-24T18:29:17;8.50;99.90
22503;DHT22;11418;48.118;9.992;2023-04-24T18:33:17;8.30;99.90
22503;DHT22;11418;48.118;9.992;2023-04-24T18:37:18;8.20;99.90
22503;DHT22;11418;48.118;9.992;2023-04-24T18:41:18;8.20;99.90
22503;DHT22;11418;48.118;9.992;2023-04-24T18:45:19;8.10;99.90
22503;DHT22;11418;48.118;9.992;2023-04-24T18:49:19;7.80;99.90
22503;DHT22;11418;48.118;9.992;2023-04-24T18:53:20;7.30;99.90
22503;DHT22;11418;48.118;9.992;2023-04-24T18:57:20;6.90;99.90
22503;DHT22;11418;48.118;9.992;2023-04-24T19:01:20;6.70;99.90
22503;DHT22;11418;48.118;9.992;2023-04-24T19:05:21;6.50;99.90
22503;DHT22;11418;48.118;9.992;2023-04-24T19:09:22;6.40;99.90
22503;DHT22;11418;48.118;9.992;2023-04-24T19:13:22;6.20;99.90
22503;DHT22;11418;48.118;9.992;2023-04-24T19:17:23;6.10;99.90
22503;DHT22;11418;48.118;9.992;2023-04-24T19:21:24;5.80;99.90
22503;DHT22;11418;48.118;9.992;2023-04-24T19:25:25;5.70;99.90
22503;DHT22;11418;48.118;9.992;2023-04-24T19:29:25;5.80;99.90
22503;DHT22;11418;48.118;9.992;2023-04-24T19:33:29;5.90;99.90
22503;DHT22;11418;48.118;9.992;2023-04-24T19:37:29;6.00;99.90
22503;DHT22;11418;48.118;9.992;2023-04-24T19:41:31;5.90;99.90
22503;DHT22;11418;48.118;9.992;2023-04-24T19:45:32;5.70;99.90
22503;DHT22;11418;48.118;9.992;2023-04-24T19:49:32;5.60;99.90
22503;DHT22;11418;48.118;9.992;2023-04-24T19:53:32;5.80;99.90
22503;DHT22;11418;48.118;9.992;2023-04-24T19:57:33;5.60;99.90
22503;DHT22;11418;48.118;9.992;2023-04-24T20:01:34;5.30;99.90
22503;DHT22;11418;48.118;9.992;2023-04-24T20:05:34;5.10;99.90
22503;DHT22;11418;48.118;9.992;2023-04-24T20:09:35;5.10;99.90
22503;DHT22;11418;48.118;9.992;2023-04-24T20:13:35;5.10;99.90
22503;DHT22;11418;48.118;9.992;2023-04-24T20:17:36;5.10;99.90
22503;DHT22;11418;48.118;9.992;2023-04-24T20:21:36;5.00;99.90
22503;DHT22;11418;48.118;9.992;2023-04-24T20:25:36;4.90;99.90
22503;DHT22;11418;48.118;9.992;2023-04-24T20:29:37;4.80;99.90
22503;DHT22;11418;48.118;9.992;2023-04-24T20:33:38;4.60;99.90
22503;DHT22;11418;48.118;9.992;2023-04-24T20:37:40;4.40;99.90
22503;DHT22;11418;48.118;9.992;2023-04-24T20:41:41;4.50;99.90
22503;DHT22;11418;48.118;9.992;2023-04-24T20:45:43;4.70;99.90
22503;DHT22;11418;48.118;9.992;2023-04-24T20:49:43;4.90;99.90
22503;DHT22;11418;48.118;9.992;2023-04-24T20:53:44;4.80;99.90
22503;DHT22;11418;48.118;9.992;2023-04-24T20:57:44;4.70;99.90
22503;DHT22;11418;48.118;9.992;2023-04-24T21:01:45;4.70;99.90
22503;DHT22;11418;48.118;9.992;2023-04-24T21:05:47;4.70;99.90
22503;DHT22;11418;48.118;9.992;2023-04-24T21:09:48;4.90;99.90
22503;DHT22;11418;48.118;9.992;2023-04-24T21:13:49;5.10;99.90
22503;DHT22;11418;48.118;9.992;2023-04-24T21:17:49;5.20;99.90
22503;DHT22;11418;48.118;9.992;2023-04-24T21:21:50;5.20;99.90
22503;DHT22;11418;48.118;9.992;2023-04-24T21:25:50;5.20;99.90
22503;DHT22;11418;48.118;9.992;2023-04-24T21:29:50;5.20;99.90
22503;DHT22;11418;48.118;9.992;2023-04-24T21:33:51;5.30;99.90
22503;DHT22;11418;48.118;9.992;2023-04-24T21:37:51;5.40;99.90
22503;DHT22;11418;48.118;9.992;2023-04-24T21:41:52;5.50;99.90
22503;DHT22;11418;48.118;9.992;2023-04-24T21:45:52;5.70;99.90
22503;DHT22;11418;48.118;9.992;2023-04-24T21:49:53;6.10;99.90
22503;DHT22;11418;48.118;9.992;2023-04-24T21:53:53;6.20;99.90
22503;DHT22;11418;48.118;9.992;2023-04-24T21:57:53;6.20;99.90
22503;DHT22;11418;48.118;9.992;2023-04-24T22:01:54;6.20;99.90
22503;DHT22;11418;48.118;9.992;2023-04-24T22:05:55;6.30;99.90
22503;DHT22;11418;48.118;9.992;2023-04-24T22:09:55;6.20;99.90
22503;DHT22;11418;48.118;9.992;2023-04-24T22:13:56;6.10;99.90
22503;DHT22;11418;48.118;9.992;2023-04-24T22:17:56;6.00;99.90
22503;DHT22;11418;48.118;9.992;2023-04-24T22:21:57;6.10;99.90
22503;DHT22;11418;48.118;9.992;2023-04-24T22:25:57;6.30;99.90
22503;DHT22;11418;48.118;9.992;2023-04-24T22:29:57;6.50;99.90
22503;DHT22;11418;48.118;9.992;2023-04-24T22:33:58;6.70;99.90
22503;DHT22;11418;48.118;9.992;2023-04-24T22:37:58;6.70;99.90
22503;DHT22;11418;48.118;9.992;2023-04-24T22:41:59;6.60;99.90
22503;DHT22;11418;48.118;9.992;2023-04-24T22:45:59;6.50;99.90
22503;DHT22;11418;48.118;9.992;2023-04-24T22:50:00;6.50;99.90
22503;DHT22;11418;48.118;9.992;2023-04-24T22:54:02;6.50;99.90
22503;DHT22;11418;48.118;9.992;2023-04-24T22:58:03;6.60;99.90
22503;DHT22;11418;48.118;9.992;2023-04-24T23:02:03;6.80;99.90
22503;DHT22;11418;48.118;9.992;2023-04-24T23:06:04;6.80;99.90
22503;DHT22;11418;48.118;9.992;2023-04-24T23:10:05;6.90;99.90
22503;DHT22;11418;48.118;9.992;2023-04-24T23:14:06;6.80;99.90
22503;DHT22;11418;48.118;9.992;2023-04-24T23:18:07;6.80;99.90
22503;DHT22;11418;48.118;9.992;2023-04-24T23:22:08;6.80;99.90
22503;DHT22;11418;48.118;9.992;2023-04-24T23:26:08;6.70;99.90
22503;DHT22;11418;48.118;9.992;2023-04-24T23:30:09;6.60;99.90
22503;DHT22;11418;48.118;9.992;2023-04-24T23:34:09;6.60;99.90
22503;DHT22;11418;48.118;9.992;2023-04-24T23:38:10;6.50;99.90
22503;DHT22;11418;48.118;9.992;2023-04-24T23:42:10;6.40;99.90
22503;DHT22;11418;48.118;9.992;2023-04-24T23:46:11;6.60;99.90
22503;DHT22;11418;48.118;9.992;2023-04-24T23:50:11;6.60;99.90
22503;DHT22;11418;48.118;9.992;2023-04-24T23:54:12;6.40;99.90
22503;DHT22;11418;48.118;9.992;2023-04-24T23:58:12;6.70;99.90
